sensor_id;sensor_type;location;lat;lon;timestamp;temperature;humidity
16134;DHT22;8172;45.018;5.972;2022-11-15T00:02:19;9.50;70.70
16134;DHT22;8172;45.018;5.972;2022-11-15T00:07:28;9.50;70.70
16134;DHT22;8172;45.018;5.972;2022-11-15T00:12:38;9.50;70.70
16134;DHT22;8172;45.018;5.972;2022-11-15T00:17:50;9.50;70.80
16134;DHT22;8172;45.018;5.972;2022-11-15T00:22:59;9.50;70.90
16134;DHT22;8172;45.018;5.972;2022-11-15T00:28:08;9.50;70.90
16134;DHT22;8172;45.018;5.972;2022-11-15T00:33:17;9.50;71.00
16134;DHT22;8172;45.018;5.972;2022-11-15T00:38:29;9.50;71.00
16134;DHT22;8172;45.018;5.972;2022-11-15T00:43:36;9.50;71.00
16134;DHT22;8172;45.018;5.972;2022-11-15T00:48:44;9.50;71.10
16134;DHT22;8172;45.018;5.972;2022-11-15T00:53:53;9.50;71.20
16134;DHT22;8172;45.018;5.972;2022-11-15T00:59:01;9.50;71.30
16134;DHT22;8172;45.018;5.972;2022-11-15T01:04:10;9.50;71.50
16134;DHT22;8172;45.018;5.972;2022-11-15T01:09:19;9.50;71.40
16134;DHT22;8172;45.018;5.972;2022-11-15T01:14:28;9.50;71.50
16134;DHT22;8172;45.018;5.972;2022-11-15T01:19:36;9.50;71.60
16134;DHT22;8172;45.018;5.972;2022-11-15T01:24:45;9.50;71.80
16134;DHT22;8172;45.018;5.972;2022-11-15T01:29:54;9.50;71.80
16134;DHT22;8172;45.018;5.972;2022-11-15T01:35:03;9.50;72.00
16134;DHT22;8172;45.018;5.972;2022-11-15T01:40:12;9.50;72.10
16134;DHT22;8172;45.018;5.972;2022-11-15T01:45:22;9.50;72.10
16134;DHT22;8172;45.018;5.972;2022-11-15T01:50:33;9.60;72.10
16134;DHT22;8172;45.018;5.972;2022-11-15T01:55:41;9.60;72.20
16134;DHT22;8172;45.018;5.972;2022-11-15T02:00:50;9.60;72.20
16134;DHT22;8172;45.018;5.972;2022-11-15T02:06:00;9.60;72.20
16134;DHT22;8172;45.018;5.972;2022-11-15T02:11:09;9.60;72.20
16134;DHT22;8172;45.018;5.972;2022-11-15T02:16:52;9.60;72.50
16134;DHT22;8172;45.018;5.972;2022-11-15T02:37:08;9.60;72.90
16134;DHT22;8172;45.018;5.972;2022-11-15T02:42:21;9.60;72.90
16134;DHT22;8172;45.018;5.972;2022-11-15T02:47:26;9.50;73.00
16134;DHT22;8172;45.018;5.972;2022-11-15T02:52:37;9.60;73.00
16134;DHT22;8172;45.018;5.972;2022-11-15T02:57:51;9.60;73.10
16134;DHT22;8172;45.018;5.972;2022-11-15T03:08:14;9.50;73.20
16134;DHT22;8172;45.018;5.972;2022-11-15T03:13:26;9.50;73.20
16134;DHT22;8172;45.018;5.972;2022-11-15T03:18:47;9.50;73.40
16134;DHT22;8172;45.018;5.972;2022-11-15T03:23:58;9.60;73.40
16134;DHT22;8172;45.018;5.972;2022-11-15T03:29:12;9.60;73.50
16134;DHT22;8172;45.018;5.972;2022-11-15T03:39:32;9.50;73.60
16134;DHT22;8172;45.018;5.972;2022-11-15T03:49:55;9.40;73.80
16134;DHT22;8172;45.018;5.972;2022-11-15T03:55:05;9.40;73.80
16134;DHT22;8172;45.018;5.972;2022-11-15T04:00:16;9.40;73.80
16134;DHT22;8172;45.018;5.972;2022-11-15T04:05:26;9.40;73.80
16134;DHT22;8172;45.018;5.972;2022-11-15T04:10:36;9.40;73.80
16134;DHT22;8172;45.018;5.972;2022-11-15T04:15:44;9.50;73.80
16134;DHT22;8172;45.018;5.972;2022-11-15T04:20:53;9.50;73.80
16134;DHT22;8172;45.018;5.972;2022-11-15T04:26:11;9.50;73.80
16134;DHT22;8172;45.018;5.972;2022-11-15T04:31:16;9.50;73.90
16134;DHT22;8172;45.018;5.972;2022-11-15T04:36:28;9.50;73.90
16134;DHT22;8172;45.018;5.972;2022-11-15T04:41:38;9.50;74.10
16134;DHT22;8172;45.018;5.972;2022-11-15T04:46:48;9.50;74.20
16134;DHT22;8172;45.018;5.972;2022-11-15T04:51:59;9.50;74.30
16134;DHT22;8172;45.018;5.972;2022-11-15T04:57:11;9.40;74.40
16134;DHT22;8172;45.018;5.972;2022-11-15T05:02:21;9.50;74.50
16134;DHT22;8172;45.018;5.972;2022-11-15T05:07:31;9.40;74.70
16134;DHT22;8172;45.018;5.972;2022-11-15T05:12:44;9.40;74.70
16134;DHT22;8172;45.018;5.972;2022-11-15T05:17:58;9.50;74.70
16134;DHT22;8172;45.018;5.972;2022-11-15T05:23:09;9.50;74.80
16134;DHT22;8172;45.018;5.972;2022-11-15T05:28:17;9.50;74.80
16134;DHT22;8172;45.018;5.972;2022-11-15T05:33:26;9.50;74.90
16134;DHT22;8172;45.018;5.972;2022-11-15T05:38:37;9.50;74.90
16134;DHT22;8172;45.018;5.972;2022-11-15T05:43:48;9.40;75.00
16134;DHT22;8172;45.018;5.972;2022-11-15T05:49:00;9.50;75.00
16134;DHT22;8172;45.018;5.972;2022-11-15T05:54:15;9.50;75.00
16134;DHT22;8172;45.018;5.972;2022-11-15T05:59:25;9.50;75.00
16134;DHT22;8172;45.018;5.972;2022-11-15T06:04:35;9.50;75.00
16134;DHT22;8172;45.018;5.972;2022-11-15T06:09:47;9.50;75.00
16134;DHT22;8172;45.018;5.972;2022-11-15T06:14:59;9.50;75.10
16134;DHT22;8172;45.018;5.972;2022-11-15T06:20:09;9.40;75.10
16134;DHT22;8172;45.018;5.972;2022-11-15T06:25:18;9.40;75.10
16134;DHT22;8172;45.018;5.972;2022-11-15T06:30:27;9.40;75.10
16134;DHT22;8172;45.018;5.972;2022-11-15T06:35:36;9.40;75.00
16134;DHT22;8172;45.018;5.972;2022-11-15T06:40:44;9.40;75.00
16134;DHT22;8172;45.018;5.972;2022-11-15T06:45:54;9.40;74.90
16134;DHT22;8172;45.018;5.972;2022-11-15T06:51:04;9.40;75.00
16134;DHT22;8172;45.018;5.972;2022-11-15T06:56:13;9.40;75.00
16134;DHT22;8172;45.018;5.972;2022-11-15T07:01:22;9.40;75.00
16134;DHT22;8172;45.018;5.972;2022-11-15T07:06:31;9.40;75.00
16134;DHT22;8172;45.018;5.972;2022-11-15T07:11:40;9.40;75.00
16134;DHT22;8172;45.018;5.972;2022-11-15T07:16:49;9.40;75.10
16134;DHT22;8172;45.018;5.972;2022-11-15T07:21:57;9.40;75.10
16134;DHT22;8172;45.018;5.972;2022-11-15T07:27:06;9.40;75.30
16134;DHT22;8172;45.018;5.972;2022-11-15T07:32:16;9.40;75.40
16134;DHT22;8172;45.018;5.972;2022-11-15T07:37:26;9.50;75.50
16134;DHT22;8172;45.018;5.972;2022-11-15T07:42:35;9.50;75.50
16134;DHT22;8172;45.018;5.972;2022-11-15T07:47:48;9.50;75.60
16134;DHT22;8172;45.018;5.972;2022-11-15T07:52:59;9.50;75.60
16134;DHT22;8172;45.018;5.972;2022-11-15T07:58:11;9.60;75.60
16134;DHT22;8172;45.018;5.972;2022-11-15T08:03:22;9.60;75.90
16134;DHT22;8172;45.018;5.972;2022-11-15T08:08:33;9.50;75.80
16134;DHT22;8172;45.018;5.972;2022-11-15T08:13:42;9.50;75.80
16134;DHT22;8172;45.018;5.972;2022-11-15T08:18:50;9.60;75.90
16134;DHT22;8172;45.018;5.972;2022-11-15T08:23:59;9.60;75.90
16134;DHT22;8172;45.018;5.972;2022-11-15T08:29:07;9.60;75.80
16134;DHT22;8172;45.018;5.972;2022-11-15T08:34:16;9.70;75.80
16134;DHT22;8172;45.018;5.972;2022-11-15T08:39:25;9.80;75.70
16134;DHT22;8172;45.018;5.972;2022-11-15T08:44:33;9.80;75.60
16134;DHT22;8172;45.018;5.972;2022-11-15T08:49:42;9.90;75.70
16134;DHT22;8172;45.018;5.972;2022-11-15T08:54:52;9.90;75.50
16134;DHT22;8172;45.018;5.972;2022-11-15T09:00:01;9.90;75.40
16134;DHT22;8172;45.018;5.972;2022-11-15T09:05:10;9.90;75.70
16134;DHT22;8172;45.018;5.972;2022-11-15T09:10:19;9.90;75.80
16134;DHT22;8172;45.018;5.972;2022-11-15T09:15:28;9.90;76.10
16134;DHT22;8172;45.018;5.972;2022-11-15T09:20:39;9.90;76.20
16134;DHT22;8172;45.018;5.972;2022-11-15T09:25:49;10.00;76.20
16134;DHT22;8172;45.018;5.972;2022-11-15T09:31:01;10.00;76.30
16134;DHT22;8172;45.018;5.972;2022-11-15T09:36:10;10.00;76.30
16134;DHT22;8172;45.018;5.972;2022-11-15T09:46:36;10.20;76.70
16134;DHT22;8172;45.018;5.972;2022-11-15T09:51:43;10.20;76.70
16134;DHT22;8172;45.018;5.972;2022-11-15T09:56:53;10.20;76.60
16134;DHT22;8172;45.018;5.972;2022-11-15T10:12:20;10.20;76.60
16134;DHT22;8172;45.018;5.972;2022-11-15T10:22:45;10.40;77.00
16134;DHT22;8172;45.018;5.972;2022-11-15T10:32:57;10.50;76.80
16134;DHT22;8172;45.018;5.972;2022-11-15T10:38:09;10.50;76.50
16134;DHT22;8172;45.018;5.972;2022-11-15T10:43:17;10.50;76.00
16134;DHT22;8172;45.018;5.972;2022-11-15T10:48:25;10.50;76.00
16134;DHT22;8172;45.018;5.972;2022-11-15T10:53:40;10.50;75.90
16134;DHT22;8172;45.018;5.972;2022-11-15T10:58:49;10.50;75.90
16134;DHT22;8172;45.018;5.972;2022-11-15T11:09:05;10.50;76.20
16134;DHT22;8172;45.018;5.972;2022-11-15T11:24:36;10.50;76.60
16134;DHT22;8172;45.018;5.972;2022-11-15T11:29:47;10.50;76.70
16134;DHT22;8172;45.018;5.972;2022-11-15T11:34:58;10.60;76.60
16134;DHT22;8172;45.018;5.972;2022-11-15T11:40:10;10.60;76.50
16134;DHT22;8172;45.018;5.972;2022-11-15T11:45:19;10.60;76.50
16134;DHT22;8172;45.018;5.972;2022-11-15T11:50:26;10.60;76.50
16134;DHT22;8172;45.018;5.972;2022-11-15T12:05:56;10.80;76.30
16134;DHT22;8172;45.018;5.972;2022-11-15T12:16:15;10.90;76.30
16134;DHT22;8172;45.018;5.972;2022-11-15T12:31:43;11.00;76.70
16134;DHT22;8172;45.018;5.972;2022-11-15T12:36:52;11.10;76.60
16134;DHT22;8172;45.018;5.972;2022-11-15T12:52:17;11.10;76.40
16134;DHT22;8172;45.018;5.972;2022-11-15T13:02:41;11.10;76.40
16134;DHT22;8172;45.018;5.972;2022-11-15T13:12:50;11.00;76.30
16134;DHT22;8172;45.018;5.972;2022-11-15T13:17:58;11.00;76.60
16134;DHT22;8172;45.018;5.972;2022-11-15T13:23:09;11.00;76.50
16134;DHT22;8172;45.018;5.972;2022-11-15T13:38:37;11.00;76.70
16134;DHT22;8172;45.018;5.972;2022-11-15T13:43:45;11.00;76.80
16134;DHT22;8172;45.018;5.972;2022-11-15T13:48:54;11.00;76.60
16134;DHT22;8172;45.018;5.972;2022-11-15T13:54:08;11.10;76.40
16134;DHT22;8172;45.018;5.972;2022-11-15T14:04:23;11.00;76.10
16134;DHT22;8172;45.018;5.972;2022-11-15T14:09:34;11.00;76.20
16134;DHT22;8172;45.018;5.972;2022-11-15T14:14:46;11.00;76.30
16134;DHT22;8172;45.018;5.972;2022-11-15T14:19:51;11.00;76.20
16134;DHT22;8172;45.018;5.972;2022-11-15T14:30:14;11.00;76.10
16134;DHT22;8172;45.018;5.972;2022-11-15T14:35:21;11.00;76.20
16134;DHT22;8172;45.018;5.972;2022-11-15T14:40:28;11.00;76.30
16134;DHT22;8172;45.018;5.972;2022-11-15T14:45:35;11.00;76.30
16134;DHT22;8172;45.018;5.972;2022-11-15T14:50:42;11.00;76.30
16134;DHT22;8172;45.018;5.972;2022-11-15T14:55:50;11.00;76.20
16134;DHT22;8172;45.018;5.972;2022-11-15T15:00:57;11.00;76.10
16134;DHT22;8172;45.018;5.972;2022-11-15T15:06:04;11.00;76.30
16134;DHT22;8172;45.018;5.972;2022-11-15T15:11:14;11.00;76.20
16134;DHT22;8172;45.018;5.972;2022-11-15T15:16:21;11.00;76.20
16134;DHT22;8172;45.018;5.972;2022-11-15T15:21:29;10.90;76.20
16134;DHT22;8172;45.018;5.972;2022-11-15T15:26:39;10.90;76.30
16134;DHT22;8172;45.018;5.972;2022-11-15T15:31:46;10.90;76.40
16134;DHT22;8172;45.018;5.972;2022-11-15T15:42:03;10.70;76.50
16134;DHT22;8172;45.018;5.972;2022-11-15T15:47:13;10.70;76.70
16134;DHT22;8172;45.018;5.972;2022-11-15T15:52:20;10.70;76.80
16134;DHT22;8172;45.018;5.972;2022-11-15T15:57:27;10.70;76.90
16134;DHT22;8172;45.018;5.972;2022-11-15T16:02:34;10.70;76.90
16134;DHT22;8172;45.018;5.972;2022-11-15T16:07:43;10.70;76.90
16134;DHT22;8172;45.018;5.972;2022-11-15T16:12:50;10.70;76.90
16134;DHT22;8172;45.018;5.972;2022-11-15T16:17:59;10.70;77.00
16134;DHT22;8172;45.018;5.972;2022-11-15T16:23:09;10.70;77.10
16134;DHT22;8172;45.018;5.972;2022-11-15T16:33:26;10.60;77.40
16134;DHT22;8172;45.018;5.972;2022-11-15T16:38:34;10.60;77.50
16134;DHT22;8172;45.018;5.972;2022-11-15T16:43:42;10.60;77.60
16134;DHT22;8172;45.018;5.972;2022-11-15T16:48:49;10.50;77.90
16134;DHT22;8172;45.018;5.972;2022-11-15T16:53:56;10.40;78.00
16134;DHT22;8172;45.018;5.972;2022-11-15T16:59:03;10.50;78.10
16134;DHT22;8172;45.018;5.972;2022-11-15T17:04:12;10.50;78.10
16134;DHT22;8172;45.018;5.972;2022-11-15T17:09:22;10.50;78.10
16134;DHT22;8172;45.018;5.972;2022-11-15T17:14:29;10.40;78.10
16134;DHT22;8172;45.018;5.972;2022-11-15T17:19:36;10.40;78.20
16134;DHT22;8172;45.018;5.972;2022-11-15T17:24:43;10.40;78.10
16134;DHT22;8172;45.018;5.972;2022-11-15T17:29:50;10.40;77.90
16134;DHT22;8172;45.018;5.972;2022-11-15T17:34:58;10.40;77.90
16134;DHT22;8172;45.018;5.972;2022-11-15T17:40:05;10.50;77.80
16134;DHT22;8172;45.018;5.972;2022-11-15T17:45:12;10.50;77.60
16134;DHT22;8172;45.018;5.972;2022-11-15T17:50:20;10.60;77.60
16134;DHT22;8172;45.018;5.972;2022-11-15T17:55:27;10.60;77.20
16134;DHT22;8172;45.018;5.972;2022-11-15T18:00:34;10.60;77.10
16134;DHT22;8172;45.018;5.972;2022-11-15T18:05:42;10.60;77.00
16134;DHT22;8172;45.018;5.972;2022-11-15T18:10:59;10.60;77.10
16134;DHT22;8172;45.018;5.972;2022-11-15T18:15:59;10.60;77.10
16134;DHT22;8172;45.018;5.972;2022-11-15T18:21:09;10.60;77.00
16134;DHT22;8172;45.018;5.972;2022-11-15T18:26:17;10.60;76.80
16134;DHT22;8172;45.018;5.972;2022-11-15T18:31:27;10.60;76.80
16134;DHT22;8172;45.018;5.972;2022-11-15T18:36:34;10.60;76.80
16134;DHT22;8172;45.018;5.972;2022-11-15T18:41:44;10.60;76.80
16134;DHT22;8172;45.018;5.972;2022-11-15T18:46:52;10.70;76.80
16134;DHT22;8172;45.018;5.972;2022-11-15T18:51:59;10.70;76.80
16134;DHT22;8172;45.018;5.972;2022-11-15T18:57:07;10.70;76.80
16134;DHT22;8172;45.018;5.972;2022-11-15T19:02:14;10.70;76.90
16134;DHT22;8172;45.018;5.972;2022-11-15T19:07:21;10.70;77.00
16134;DHT22;8172;45.018;5.972;2022-11-15T19:12:28;10.70;77.20
16134;DHT22;8172;45.018;5.972;2022-11-15T19:17:36;10.60;77.50
16134;DHT22;8172;45.018;5.972;2022-11-15T19:22:44;10.60;77.70
16134;DHT22;8172;45.018;5.972;2022-11-15T19:27:52;10.60;77.80
16134;DHT22;8172;45.018;5.972;2022-11-15T19:32:59;10.60;77.90
16134;DHT22;8172;45.018;5.972;2022-11-15T19:38:06;10.50;78.00
16134;DHT22;8172;45.018;5.972;2022-11-15T19:43:13;10.60;78.10
16134;DHT22;8172;45.018;5.972;2022-11-15T19:48:21;10.60;78.10
16134;DHT22;8172;45.018;5.972;2022-11-15T19:53:28;10.50;78.20
16134;DHT22;8172;45.018;5.972;2022-11-15T19:58:37;10.50;78.30
16134;DHT22;8172;45.018;5.972;2022-11-15T20:03:46;10.40;78.50
16134;DHT22;8172;45.018;5.972;2022-11-15T20:08:53;10.40;78.60
16134;DHT22;8172;45.018;5.972;2022-11-15T20:14:01;10.40;78.70
16134;DHT22;8172;45.018;5.972;2022-11-15T20:19:08;10.40;78.90
16134;DHT22;8172;45.018;5.972;2022-11-15T20:24:17;10.40;79.00
16134;DHT22;8172;45.018;5.972;2022-11-15T20:29:24;10.30;79.20
16134;DHT22;8172;45.018;5.972;2022-11-15T20:34:31;10.40;79.30
16134;DHT22;8172;45.018;5.972;2022-11-15T20:39:38;10.40;79.20
16134;DHT22;8172;45.018;5.972;2022-11-15T20:44:45;10.50;79.20
16134;DHT22;8172;45.018;5.972;2022-11-15T20:49:52;10.40;79.20
16134;DHT22;8172;45.018;5.972;2022-11-15T20:55:00;10.40;79.30
16134;DHT22;8172;45.018;5.972;2022-11-15T21:00:08;10.40;79.20
16134;DHT22;8172;45.018;5.972;2022-11-15T21:05:15;10.50;79.30
16134;DHT22;8172;45.018;5.972;2022-11-15T21:10:22;10.40;79.30
16134;DHT22;8172;45.018;5.972;2022-11-15T21:15:32;10.40;79.40
16134;DHT22;8172;45.018;5.972;2022-11-15T21:20:39;10.50;79.40
16134;DHT22;8172;45.018;5.972;2022-11-15T21:25:49;10.40;79.40
16134;DHT22;8172;45.018;5.972;2022-11-15T21:30:59;10.40;79.50
16134;DHT22;8172;45.018;5.972;2022-11-15T21:36:07;10.40;79.50
16134;DHT22;8172;45.018;5.972;2022-11-15T21:41:14;10.40;79.70
16134;DHT22;8172;45.018;5.972;2022-11-15T21:46:21;10.40;79.60
16134;DHT22;8172;45.018;5.972;2022-11-15T21:51:28;10.50;79.60
16134;DHT22;8172;45.018;5.972;2022-11-15T21:56:38;10.40;79.60
16134;DHT22;8172;45.018;5.972;2022-11-15T22:01:50;10.40;79.90
16134;DHT22;8172;45.018;5.972;2022-11-15T22:07:00;10.30;80.00
16134;DHT22;8172;45.018;5.972;2022-11-15T22:12:10;10.30;80.20
16134;DHT22;8172;45.018;5.972;2022-11-15T22:17:17;10.20;80.30
16134;DHT22;8172;45.018;5.972;2022-11-15T22:22:25;10.30;80.40
16134;DHT22;8172;45.018;5.972;2022-11-15T22:27:31;10.30;80.30
16134;DHT22;8172;45.018;5.972;2022-11-15T22:32:39;10.20;80.40
16134;DHT22;8172;45.018;5.972;2022-11-15T22:37:45;10.20;80.60
16134;DHT22;8172;45.018;5.972;2022-11-15T22:42:52;10.10;80.80
16134;DHT22;8172;45.018;5.972;2022-11-15T22:47:59;10.00;81.00
16134;DHT22;8172;45.018;5.972;2022-11-15T22:53:06;10.10;81.00
16134;DHT22;8172;45.018;5.972;2022-11-15T22:58:13;10.10;81.00
16134;DHT22;8172;45.018;5.972;2022-11-15T23:03:21;10.10;81.00
16134;DHT22;8172;45.018;5.972;2022-11-15T23:08:29;10.20;80.90
16134;DHT22;8172;45.018;5.972;2022-11-15T23:13:36;10.20;80.80
16134;DHT22;8172;45.018;5.972;2022-11-15T23:18:43;10.30;80.60
16134;DHT22;8172;45.018;5.972;2022-11-15T23:23:50;10.20;80.60
16134;DHT22;8172;45.018;5.972;2022-11-15T23:28:57;10.20;80.70
16134;DHT22;8172;45.018;5.972;2022-11-15T23:34:04;10.30;80.70
16134;DHT22;8172;45.018;5.972;2022-11-15T23:39:11;10.30;80.60
16134;DHT22;8172;45.018;5.972;2022-11-15T23:44:18;10.30;80.50
16134;DHT22;8172;45.018;5.972;2022-11-15T23:49:25;10.40;80.50
16134;DHT22;8172;45.018;5.972;2022-11-15T23:54:32;10.40;80.40
16134;DHT22;8172;45.018;5.972;2022-11-15T23:59:40;10.40;80.40
